Time,TemperatureF,DewpointF,PressureIn,WindDirection,WindDirectionDegrees,WindSpeedMPH,WindSpeedGustMPH,Humidity,HourlyPrecipIn,Conditions,Clouds,dailyrainin,SoftwareType,DateUTC
2013-02-20 06:31:00,27.5,14.3,30.09,SE,134,0.0,0.0,57,0.00,,OVC080,0.00,VWS V14.01,2013-02-20 11:31:00,
2013-02-20 06:32:00,27.5,14.3,30.09,SE,134,0.0,0.0,57,0.00,,OVC080,0.00,VWS V14.01,2013-02-20 11:32:00,
2013-02-20 06:37:00,26.9,14.1,30.09,SSE,148,1.0,1.0,58,0.00,,OVC080,0.00,VWS V14.01,2013-02-20 11:37:00,
2013-02-20 06:42:00,26.4,14.0,30.09,SE,145,0.0,0.0,59,0.00,,OVC080,0.00,VWS V14.01,2013-02-20 11:42:00,
2013-02-20 06:47:00,26.1,13.4,30.09,ESE,118,1.0,1.0,58,0.00,,OVC080,0.00,VWS V14.01,2013-02-20 11:47:00,
2013-02-20 06:52:00,25.9,13.9,30.09,ESE,118,0.0,0.0,60,0.00,,OVC080,0.00,VWS V14.01,2013-02-20 11:52:00,
2013-02-20 06:57:00,25.6,14.0,30.09,SW,214,0.0,1.0,61,0.00,,OVC080,0.00,VWS V14.01,2013-02-20 11:57:00,
2013-02-20 07:02:00,26.0,13.6,30.09,WNW,288,0.0,0.0,59,0.00,,OVC080,0.00,VWS V14.01,2013-02-20 12:02:00,
2013-02-20 07:07:00,26.1,14.1,30.10,WNW,288,0.0,1.0,60,0.00,,OVC080,0.00,VWS V14.01,2013-02-20 12:07:00,
2013-02-20 07:12:00,26.3,13.6,30.10,NW,318,0.0,1.0,58,0.00,,OVC080,0.00,VWS V14.01,2013-02-20 12:12:00,
2013-02-20 07:17:00,26.2,14.2,30.10,North,350,1.0,1.0,60,0.00,,OVC080,0.00,VWS V14.01,2013-02-20 12:17:00,
2013-02-20 07:22:00,26.1,14.5,30.10,NW,326,0.0,1.0,61,0.00,,OVC080,0.00,VWS V14.01,2013-02-20 12:22:00,
2013-02-20 07:27:00,26.2,14.2,30.10,NE,36,1.0,1.0,60,0.00,,OVC080,0.00,VWS V14.01,2013-02-20 12:27:00,
2013-02-20 07:32:00,26.0,16.2,30.10,NNE,32,0.0,0.0,66,0.00,,OVC080,0.00,VWS V14.01,2013-02-20 12:32:00,
2013-02-20 07:37:00,25.8,15.3,30.10,North,10,1.0,2.0,64,0.00,,OVC080,0.00,VWS V14.01,2013-02-20 12:37:00,
2013-02-20 07:42:00,26.1,14.9,30.10,WSW,238,0.0,0.0,62,0.00,,OVC080,0.00,VWS V14.01,2013-02-20 12:42:00,
2013-02-20 07:47:00,26.1,15.2,30.10,WSW,256,0.0,1.0,63,0.00,,OVC080,0.00,VWS V14.01,2013-02-20 12:47:00,
2013-02-20 07:52:00,27.5,13.1,30.09,West,269,1.0,2.0,54,0.00,,OVC080,0.00,VWS V14.01,2013-02-20 12:52:00,
2013-02-20 07:57:00,29.6,13.3,30.10,WNW,291,0.0,1.0,50,0.00,,OVC080,0.00,VWS V14.01,2013-02-20 12:57:00,
2013-02-20 08:02:00,32.1,9.9,30.10,SSW,195,1.0,4.0,39,0.00,,OVC080,0.00,VWS V14.01,2013-02-20 13:02:00,
2013-02-20 08:07:00,33.4,9.9,30.10,WNW,294,3.0,5.0,37,0.00,,OVC080,0.00,VWS V14.01,2013-02-20 13:07:00,
2013-02-20 08:12:00,34.5,8.4,30.10,WNW,298,3.0,4.0,33,0.00,,OVC080,0.00,VWS V14.01,2013-02-20 13:12:00,
2013-02-20 08:17:00,35.0,8.8,30.10,West,274,4.0,5.0,33,0.00,,OVC080,0.00,VWS V14.01,2013-02-20 13:17:00,
2013-02-20 08:22:00,35.7,7.3,30.10,WNW,285,4.0,8.0,30,0.00,,OVC080,0.00,VWS V14.01,2013-02-20 13:22:00,
2013-02-20 08:27:00,36.2,7.8,30.10,NNW,327,2.0,6.0,30,0.00,,OVC080,0.00,VWS V14.01,2013-02-20 13:27:00,
2013-02-20 08:32:00,36.6,7.4,30.10,NE,41,4.0,4.0,29,0.00,,OVC080,0.00,VWS V14.01,2013-02-20 13:32:00,
2013-02-20 08:37:00,37.2,7.1,30.10,WNW,291,2.0,10.0,28,0.00,,OVC080,0.00,VWS V14.01,2013-02-20 13:37:00,
2013-02-20 08:42:00,37.6,6.7,30.10,NNW,327,7.0,7.0,27,0.00,,OVC080,0.00,VWS V14.01,2013-02-20 13:42:00,
2013-02-20 08:47:00,38.0,6.2,30.11,West,281,3.0,6.0,26,0.00,,OVC080,0.00,VWS V14.01,2013-02-20 13:47:00,
2013-02-20 08:52:00,38.4,6.5,30.11,WNW,283,3.0,8.0,26,0.00,,OVC080,0.00,VWS V14.01,2013-02-20 13:52:00,
2013-02-20 08:57:00,38.8,6.9,30.10,WSW,257,3.0,5.0,26,0.00,,OVC080,0.00,VWS V14.01,2013-02-20 13:57:00,
2013-02-20 09:02:00,39.3,6.4,30.10,WNW,282,3.0,4.0,25,0.00,,OVC080,0.00,VWS V14.01,2013-02-20 14:02:00,
2013-02-20 09:07:00,39.8,6.9,30.10,West,277,5.0,9.0,25,0.00,,OVC080,0.00,VWS V14.01,2013-02-20 14:07:00,
2013-02-20 09:12:00,40.3,5.5,30.10,WNW,295,4.0,5.0,23,0.00,,OVC080,0.00,VWS V14.01,2013-02-20 14:12:00,
2013-02-20 09:17:00,40.6,6.7,30.11,SE,133,1.0,2.0,24,0.00,,OVC080,0.00,VWS V14.01,2013-02-20 14:17:00,
2013-02-20 09:22:00,41.0,6.1,30.11,West,263,2.0,11.0,23,0.00,,OVC080,0.00,VWS V14.01,2013-02-20 14:22:00,
2013-02-20 09:27:00,41.5,8.3,30.11,WSW,239,3.0,7.0,25,0.00,,OVC080,0.00,VWS V14.01,2013-02-20 14:27:00,
2013-02-20 09:32:00,41.9,10.4,30.11,SSW,212,1.0,2.0,27,0.00,,OVC080,0.00,VWS V14.01,2013-02-20 14:32:00,
2013-02-20 09:37:00,41.9,10.4,30.12,SSW,198,3.0,6.0,27,0.00,,OVC080,0.00,VWS V14.01,2013-02-20 14:37:00,
2013-02-20 09:42:00,41.9,11.2,30.12,WNW,293,1.0,2.0,28,0.00,,OVC080,0.00,VWS V14.01,2013-02-20 14:42:00,
2013-02-20 09:47:00,42.4,11.6,30.12,SSE,150,7.0,7.0,28,0.00,,OVC080,0.00,VWS V14.01,2013-02-20 14:47:00,
2013-02-20 09:52:00,42.5,10.1,30.12,SE,127,1.0,2.0,26,0.00,,OVC080,0.00,VWS V14.01,2013-02-20 14:52:00,
2013-02-20 09:57:00,42.9,11.2,30.12,South,187,2.0,5.0,27,0.00,,OVC080,0.00,VWS V14.01,2013-02-20 14:57:00,
2013-02-20 10:02:00,42.9,8.6,30.13,SE,142,2.0,4.0,24,0.00,,OVC080,0.00,VWS V14.01,2013-02-20 15:02:00,
2013-02-20 10:07:00,43.3,10.7,30.13,SW,217,1.0,3.0,26,0.00,,OVC080,0.00,VWS V14.01,2013-02-20 15:07:00,
2013-02-20 10:12:00,43.5,9.1,30.13,SE,125,4.0,4.0,24,0.00,,OVC080,0.00,VWS V14.01,2013-02-20 15:12:00,
2013-02-20 10:17:00,43.6,9.2,30.13,SE,125,2.0,4.0,24,0.00,,OVC080,0.00,VWS V14.01,2013-02-20 15:17:00,
2013-02-20 10:22:00,44.1,8.7,30.13,South,184,1.0,4.0,23,0.00,,OVC080,0.00,VWS V14.01,2013-02-20 15:22:00,
2013-02-20 10:27:00,44.5,10.0,30.13,SE,131,7.0,7.0,24,0.00,,OVC080,0.00,VWS V14.01,2013-02-20 15:27:00,
2013-02-20 10:32:00,44.2,8.8,30.13,SE,135,3.0,5.0,23,0.00,,OVC080,0.00,VWS V14.01,2013-02-20 15:32:00,
2013-02-20 10:37:00,44.6,8.1,30.13,WSW,245,5.0,7.0,22,0.00,,OVC080,0.00,VWS V14.01,2013-02-20 15:37:00,
2013-02-20 10:42:00,45.0,9.4,30.13,SW,216,4.0,4.0,23,0.00,,OVC080,0.00,VWS V14.01,2013-02-20 15:42:00,
2013-02-20 10:47:00,45.4,8.8,30.13,West,262,2.0,6.0,22,0.00,,OVC080,0.00,VWS V14.01,2013-02-20 15:47:00,
2013-02-20 10:52:00,45.9,9.2,30.12,WNW,300,3.0,5.0,22,0.00,,OVC080,0.00,VWS V14.01,2013-02-20 15:52:00,
2013-02-20 10:57:00,46.1,7.3,30.13,SSE,156,2.0,8.0,20,0.00,,OVC080,0.00,VWS V14.01,2013-02-20 15:57:00,
2013-02-20 11:02:00,46.4,10.6,30.13,SW,221,3.0,3.0,23,0.00,,OVC080,0.00,VWS V14.01,2013-02-20 16:02:00,
2013-02-20 11:07:00,46.3,7.4,30.12,SE,125,6.0,7.0,20,0.00,,OVC080,0.00,VWS V14.01,2013-02-20 16:07:00,
2013-02-20 11:12:00,46.5,8.7,30.12,South,189,4.0,7.0,21,0.00,,OVC080,0.00,VWS V14.01,2013-02-20 16:12:00,
2013-02-20 11:17:00,46.8,5.5,30.12,WSW,238,2.0,6.0,18,0.00,,OVC080,0.00,VWS V14.01,2013-02-20 16:17:00,
2013-02-20 11:22:00,47.1,7.0,30.12,South,183,6.0,7.0,19,0.00,,OVC080,0.00,VWS V14.01,2013-02-20 16:22:00,
2013-02-20 11:27:00,47.5,8.4,30.13,West,262,1.0,2.0,20,0.00,,OVC080,0.00,VWS V14.01,2013-02-20 16:27:00,
2013-02-20 11:32:00,48.3,6.8,30.13,WSW,243,3.0,6.0,18,0.00,,OVC080,0.00,VWS V14.01,2013-02-20 16:32:00,
2013-02-20 11:37:00,48.3,6.8,30.13,WSW,248,1.0,2.0,18,0.00,,OVC080,0.00,VWS V14.01,2013-02-20 16:37:00,
2013-02-20 11:42:00,48.8,7.2,30.13,ENE,70,2.0,6.0,18,0.00,,OVC080,0.00,VWS V14.01,2013-02-20 16:42:00,
2013-02-20 11:47:00,48.9,7.3,30.12,SSW,193,4.0,6.0,18,0.00,,OVC080,0.00,VWS V14.01,2013-02-20 16:47:00,
2013-02-20 11:52:00,48.9,8.5,30.12,West,276,2.0,3.0,19,0.00,,OVC080,0.00,VWS V14.01,2013-02-20 16:52:00,
2013-02-20 11:57:00,49.5,6.5,30.12,West,263,2.0,2.0,17,0.00,,OVC080,0.00,VWS V14.01,2013-02-20 16:57:00,
2013-02-20 12:02:00,50.2,7.1,30.11,SW,218,5.0,5.0,17,0.00,,OVC080,0.00,VWS V14.01,2013-02-20 17:02:00,
2013-02-20 12:07:00,50.0,5.6,30.11,SW,229,1.0,1.0,16,0.00,,OVC080,0.00,VWS V14.01,2013-02-20 17:07:00,
2013-02-20 12:12:00,50.2,7.1,30.11,SSE,164,0.0,0.0,17,0.00,,OVC080,0.00,VWS V14.01,2013-02-20 17:12:00,
2013-02-20 12:17:00,50.8,7.6,30.11,ESE,110,5.0,5.0,17,0.00,,OVC080,0.00,VWS V14.01,2013-02-20 17:17:00,
2013-02-20 12:22:00,50.7,8.8,30.10,SW,224,3.0,3.0,18,0.00,,OVC080,0.00,VWS V14.01,2013-02-20 17:22:00,
2013-02-20 12:27:00,51.3,10.5,30.10,WNW,293,2.0,2.0,19,0.00,,OVC080,0.00,VWS V14.01,2013-02-20 17:27:00,
2013-02-20 12:32:00,51.1,6.5,30.10,WSW,239,3.0,5.0,16,0.00,,OVC080,0.00,VWS V14.01,2013-02-20 17:32:00,
2013-02-20 12:37:00,51.3,5.2,30.10,South,191,4.0,4.0,15,0.00,,OVC080,0.00,VWS V14.01,2013-02-20 17:37:00,
2013-02-20 12:42:00,50.8,7.6,30.10,SW,228,0.0,1.0,17,0.00,,OVC080,0.00,VWS V14.01,2013-02-20 17:42:00,
2013-02-20 12:47:00,50.7,4.8,30.09,West,259,3.0,3.0,15,0.00,,OVC080,0.00,VWS V14.01,2013-02-20 17:47:00,
2013-02-20 12:52:00,50.9,7.7,30.09,SW,231,5.0,5.0,17,0.00,,OVC080,0.00,VWS V14.01,2013-02-20 17:52:00,
2013-02-20 12:57:00,51.4,5.3,30.09,SW,229,5.0,5.0,15,0.00,,OVC080,0.00,VWS V14.01,2013-02-20 17:57:00,
2013-02-20 13:02:00,51.7,5.6,30.09,WNW,287,3.0,4.0,15,0.00,,OVC080,0.00,VWS V14.01,2013-02-20 18:02:00,
2013-02-20 13:07:00,51.7,4.1,30.08,West,271,1.0,2.0,14,0.00,,OVC080,0.00,VWS V14.01,2013-02-20 18:07:00,
2013-02-20 13:12:00,51.5,5.4,30.08,WNW,285,2.0,5.0,15,0.00,,OVC080,0.00,VWS V14.01,2013-02-20 18:12:00,
2013-02-20 13:17:00,52.1,7.3,30.08,WSW,238,5.0,7.0,16,0.00,,OVC080,0.00,VWS V14.01,2013-02-20 18:17:00,
2013-02-20 13:22:00,52.6,6.3,30.08,West,259,2.0,4.0,15,0.00,,OVC080,0.00,VWS V14.01,2013-02-20 18:22:00,
2013-02-20 13:27:00,52.6,3.2,30.08,WSW,243,7.0,9.0,13,0.00,,OVC080,0.00,VWS V14.01,2013-02-20 18:27:00,
2013-02-20 13:32:00,52.8,3.3,30.08,WNW,284,1.0,2.0,13,0.00,,OVC080,0.00,VWS V14.01,2013-02-20 18:32:00,
2013-02-20 13:37:00,53.6,7.1,30.08,SSW,210,2.0,5.0,15,0.00,,OVC080,0.00,VWS V14.01,2013-02-20 18:37:00,
2013-02-20 13:42:00,53.6,5.6,30.08,SW,232,2.0,4.0,14,0.00,,OVC080,0.00,VWS V14.01,2013-02-20 18:42:00,
2013-02-20 13:47:00,53.6,7.1,30.08,SSW,200,1.0,4.0,15,0.00,,OVC080,0.00,VWS V14.01,2013-02-20 18:47:00,
2013-02-20 13:52:00,53.3,3.7,30.07,SW,221,2.0,3.0,13,0.00,,OVC080,0.00,VWS V14.01,2013-02-20 18:52:00,
2013-02-20 13:57:00,53.1,1.8,30.08,WSW,251,2.0,6.0,12,0.00,,OVC080,0.00,VWS V14.01,2013-02-20 18:57:00,
2013-02-20 14:02:00,52.9,1.7,30.08,SW,235,2.0,7.0,12,0.00,,OVC080,0.00,VWS V14.01,2013-02-20 19:02:00,
2013-02-20 14:07:00,52.9,-0.2,30.07,WNW,283,0.0,2.0,11,0.00,,OVC080,0.00,VWS V14.01,2013-02-20 19:07:00,
2013-02-20 14:12:00,53.4,3.8,30.07,ESE,103,1.0,1.0,13,0.00,,OVC080,0.00,VWS V14.01,2013-02-20 19:12:00,
2013-02-20 14:17:00,54.0,0.7,30.07,West,277,2.0,6.0,11,0.00,,OVC080,0.00,VWS V14.01,2013-02-20 19:17:00,
2013-02-20 14:22:00,54.2,2.7,30.07,SE,132,1.0,1.0,12,0.00,,OVC080,0.00,VWS V14.01,2013-02-20 19:22:00,
2013-02-20 14:27:00,54.3,0.9,30.07,WNW,293,2.0,3.0,11,0.00,,OVC080,0.00,VWS V14.01,2013-02-20 19:27:00,
2013-02-20 14:32:00,53.6,2.2,30.07,SW,226,2.0,3.0,12,0.00,,OVC080,0.00,VWS V14.01,2013-02-20 19:32:00,
2013-02-20 14:37:00,53.6,2.2,30.07,NW,323,0.0,0.0,12,0.00,,OVC080,0.00,VWS V14.01,2013-02-20 19:37:00,
2013-02-20 14:42:00,53.9,2.5,30.07,NNW,344,1.0,2.0,12,0.00,,OVC080,0.00,VWS V14.01,2013-02-20 19:42:00,
2013-02-20 14:47:00,54.1,6.0,30.06,SSW,207,1.0,2.0,14,0.00,,OVC080,0.00,VWS V14.01,2013-02-20 19:47:00,
2013-02-20 14:52:00,53.7,-1.6,30.06,WNW,302,2.0,3.0,10,0.00,,OVC080,0.00,VWS V14.01,2013-02-20 19:52:00,
2013-02-20 14:57:00,53.6,0.4,30.06,West,281,0.0,3.0,11,0.00,,OVC080,0.00,VWS V14.01,2013-02-20 19:57:00,
2013-02-20 15:02:00,53.6,2.2,30.06,West,281,2.0,2.0,12,0.00,,OVC080,0.00,VWS V14.01,2013-02-20 20:02:00,
2013-02-20 15:06:00,53.3,2.0,30.06,West,263,1.0,2.0,12,0.00,,OVC080,0.00,VWS V14.01,2013-02-20 20:06:00,
2013-02-20 15:11:00,53.3,5.3,30.06,West,276,1.0,1.0,14,0.00,,OVC080,0.00,VWS V14.01,2013-02-20 20:11:00,
2013-02-20 15:16:00,53.3,2.0,30.06,SW,233,1.0,1.0,12,0.00,,OVC080,0.00,VWS V14.01,2013-02-20 20:16:00,
2013-02-20 15:21:00,53.2,6.8,30.06,SSW,203,0.0,0.0,15,0.00,,OVC080,0.00,VWS V14.01,2013-02-20 20:21:00,
2013-02-20 15:26:00,53.3,3.7,30.07,SW,219,1.0,2.0,13,0.00,,OVC080,0.00,VWS V14.01,2013-02-20 20:26:00,
2013-02-20 15:31:00,53.2,1.9,30.07,WNW,294,0.0,1.0,12,0.00,,OVC080,0.00,VWS V14.01,2013-02-20 20:31:00,
2013-02-20 15:36:00,53.2,1.9,30.07,WNW,293,5.0,5.0,12,0.00,,OVC080,0.00,VWS V14.01,2013-02-20 20:36:00,
2013-02-20 15:41:00,53.0,3.5,30.07,WSW,256,1.0,1.0,13,0.00,,OVC080,0.00,VWS V14.01,2013-02-20 20:41:00,
2013-02-20 15:46:00,53.2,3.6,30.07,NW,315,0.0,0.0,13,0.00,,OVC080,0.00,VWS V14.01,2013-02-20 20:46:00,
2013-02-20 15:51:00,53.3,3.7,30.07,West,271,1.0,1.0,13,0.00,,OVC080,0.00,VWS V14.01,2013-02-20 20:51:00,
2013-02-20 15:56:00,53.2,0.1,30.07,WSW,257,2.0,2.0,11,0.00,,OVC080,0.00,VWS V14.01,2013-02-20 20:56:00,
2013-02-20 16:01:00,52.9,-0.2,30.07,WNW,287,0.0,2.0,11,0.00,,OVC080,0.00,VWS V14.01,2013-02-20 21:01:00,
2013-02-20 16:06:00,52.8,4.9,30.07,NE,40,0.0,0.0,14,0.00,,OVC080,0.00,VWS V14.01,2013-02-20 21:06:00,
2013-02-20 16:11:00,53.0,1.8,30.07,ENE,58,4.0,4.0,12,0.00,,OVC080,0.00,VWS V14.01,2013-02-20 21:11:00,
2013-02-20 16:16:00,53.0,3.5,30.07,West,276,2.0,3.0,13,0.00,,OVC080,0.00,VWS V14.01,2013-02-20 21:16:00,
2013-02-20 16:21:00,52.9,3.4,30.08,WSW,248,1.0,1.0,13,0.00,,OVC080,0.00,VWS V14.01,2013-02-20 21:21:00,
2013-02-20 16:26:00,52.8,1.6,30.08,NE,40,1.0,1.0,12,0.00,,OVC080,0.00,VWS V14.01,2013-02-20 21:26:00,
2013-02-20 16:31:00,52.6,4.8,30.08,NW,314,1.0,2.0,14,0.00,,OVC080,0.00,VWS V14.01,2013-02-20 21:31:00,
2013-02-20 16:36:00,52.4,4.6,30.08,NNW,335,2.0,2.0,14,0.00,,OVC080,0.00,VWS V14.01,2013-02-20 21:36:00,
2013-02-20 16:41:00,52.1,5.9,30.08,ENE,70,2.0,2.0,15,0.00,,OVC080,0.00,VWS V14.01,2013-02-20 21:41:00,
2013-02-20 16:46:00,51.8,4.1,30.09,West,268,1.0,1.0,14,0.00,,OVC080,0.00,VWS V14.01,2013-02-20 21:46:00,
2013-02-20 16:51:00,51.6,6.9,30.09,ENE,58,2.0,2.0,16,0.00,,OVC080,0.00,VWS V14.01,2013-02-20 21:51:00,
2013-02-20 16:56:00,51.3,5.2,30.08,NNW,338,0.0,0.0,15,0.00,,OVC080,0.00,VWS V14.01,2013-02-20 21:56:00,
2013-02-20 17:01:00,51.0,5.0,30.09,NNW,331,1.0,2.0,15,0.00,,OVC080,0.00,VWS V14.01,2013-02-20 22:01:00,
2013-02-20 17:06:00,50.8,4.8,30.09,NNE,20,0.0,1.0,15,0.00,,OVC080,0.00,VWS V14.01,2013-02-20 22:06:00,
2013-02-20 17:11:00,50.6,6.1,30.09,NE,43,1.0,2.0,16,0.00,,OVC080,0.00,VWS V14.01,2013-02-20 22:11:00,
2013-02-20 17:16:00,50.3,5.8,30.09,NW,311,0.0,0.0,16,0.00,,OVC080,0.00,VWS V14.01,2013-02-20 22:16:00,
2013-02-20 17:21:00,50.0,4.2,30.10,WNW,300,0.0,0.0,15,0.00,,OVC080,0.00,VWS V14.01,2013-02-20 22:21:00,
2013-02-20 17:26:00,49.7,5.3,30.10,West,281,0.0,1.0,16,0.00,,OVC080,0.00,VWS V14.01,2013-02-20 22:26:00,
2013-02-20 17:31:00,49.3,5.0,30.10,ENE,70,1.0,1.0,16,0.00,,OVC080,0.00,VWS V14.01,2013-02-20 22:31:00,
2013-02-20 17:36:00,49.0,6.1,30.11,NNW,328,0.0,1.0,17,0.00,,OVC080,0.00,VWS V14.01,2013-02-20 22:36:00,
2013-02-20 17:42:00,48.7,4.5,30.11,West,266,0.0,2.0,16,0.00,,OVC080,0.00,VWS V14.01,2013-02-20 22:42:00,
2013-02-20 17:46:00,48.5,5.7,30.11,WSW,257,0.0,1.0,17,0.00,,OVC080,0.00,VWS V14.01,2013-02-20 22:46:00,
2013-02-20 17:52:00,48.3,5.5,30.11,North,360,2.0,2.0,17,0.00,,OVC080,0.00,VWS V14.01,2013-02-20 22:52:00,
2013-02-20 17:57:00,48.0,7.7,30.12,West,281,0.0,0.0,19,0.00,,OVC080,0.00,VWS V14.01,2013-02-20 22:57:00,
2013-02-20 18:02:00,47.7,8.6,30.12,SW,219,0.0,1.0,20,0.00,,OVC080,0.00,VWS V14.01,2013-02-20 23:02:00,
2013-02-20 18:07:00,47.3,8.3,30.13,SW,219,0.0,0.0,20,0.00,,OVC080,0.00,VWS V14.01,2013-02-20 23:07:00,
2013-02-20 18:12:00,47.0,8.0,30.13,WNW,287,0.0,0.0,20,0.00,,OVC080,0.00,VWS V14.01,2013-02-20 23:12:00,
2013-02-20 18:17:00,46.7,7.8,30.13,WNW,287,0.0,1.0,20,0.00,,OVC080,0.00,VWS V14.01,2013-02-20 23:17:00,
2013-02-20 18:22:00,46.4,8.6,30.14,WNW,290,0.0,0.0,21,0.00,,OVC080,0.00,VWS V14.01,2013-02-20 23:22:00,
2013-02-20 18:27:00,46.1,8.4,30.14,West,271,0.0,0.0,21,0.00,,OVC080,0.00,VWS V14.01,2013-02-20 23:27:00,
2013-02-20 18:32:00,45.7,8.0,30.14,West,271,0.0,0.0,21,0.00,,OVC080,0.00,VWS V14.01,2013-02-20 23:32:00,
2013-02-20 18:37:00,45.3,7.7,30.14,West,274,0.0,0.0,21,0.00,,OVC080,0.00,VWS V14.01,2013-02-20 23:37:00,
2013-02-20 18:42:00,45.1,8.5,30.14,WSW,250,0.0,0.0,22,0.00,,OVC080,0.00,VWS V14.01,2013-02-20 23:42:00,
2013-02-20 18:47:00,44.8,6.2,30.14,North,355,1.0,2.0,20,0.00,,OVC080,0.00,VWS V14.01,2013-02-20 23:47:00,
2013-02-20 18:52:00,44.7,8.2,30.14,NNE,30,1.0,1.0,22,0.00,,OVC080,0.00,VWS V14.01,2013-02-20 23:52:00,
2013-02-20 18:56:00,44.2,7.8,30.14,NE,51,1.0,1.0,22,0.00,,OVC080,0.00,VWS V14.01,2013-02-20 23:56:00,
2013-02-20 19:01:00,43.8,7.4,30.14,WSW,245,0.0,1.0,22,0.00,,OVC080,0.00,VWS V14.01,2013-02-21 00:01:00,
2013-02-20 19:06:00,43.5,6.2,30.14,NNW,347,0.0,0.0,21,0.00,,OVC080,0.00,VWS V14.01,2013-02-21 00:06:00,
2013-02-20 19:11:00,43.4,6.1,30.14,ENE,68,0.0,0.0,21,0.00,,OVC080,0.00,VWS V14.01,2013-02-21 00:11:00,
2013-02-20 19:16:00,43.3,6.0,30.14,ENE,58,1.0,1.0,21,0.00,,OVC080,0.00,VWS V14.01,2013-02-21 00:16:00,
2013-02-20 19:21:00,43.1,4.8,30.14,NE,42,2.0,2.0,20,0.00,,OVC080,0.00,VWS V14.01,2013-02-21 00:21:00,
2013-02-20 19:26:00,42.9,4.6,30.14,NE,37,0.0,0.0,20,0.00,,OVC080,0.00,VWS V14.01,2013-02-21 00:26:00,
2013-02-20 19:31:00,42.7,3.3,30.15,ENE,59,1.0,1.0,19,0.00,,OVC080,0.00,VWS V14.01,2013-02-21 00:31:00,
2013-02-20 19:36:00,42.5,4.3,30.15,NNW,335,1.0,2.0,20,0.00,,OVC080,0.00,VWS V14.01,2013-02-21 00:36:00,
2013-02-20 19:41:00,42.3,4.1,30.15,North,1,0.0,1.0,20,0.00,,OVC080,0.00,VWS V14.01,2013-02-21 00:41:00,
2013-02-20 19:46:00,42.0,3.8,30.15,North,360,0.0,0.0,20,0.00,,OVC080,0.00,VWS V14.01,2013-02-21 00:46:00,
2013-02-20 19:51:00,41.6,6.6,30.15,North,11,0.0,0.0,23,0.00,,OVC080,0.00,VWS V14.01,2013-02-21 00:51:00,
2013-02-20 19:56:00,41.5,6.5,30.15,WNW,287,2.0,2.0,23,0.00,,OVC080,0.00,VWS V14.01,2013-02-21 00:56:00,
2013-02-20 20:01:00,41.5,5.5,30.15,WSW,252,0.0,1.0,22,0.00,,OVC080,0.00,VWS V14.01,2013-02-21 01:01:00,
2013-02-20 20:06:00,41.6,4.6,30.15,NNE,16,0.0,1.0,21,0.00,,OVC080,0.00,VWS V14.01,2013-02-21 01:06:00,
2013-02-20 20:11:00,41.7,4.7,30.15,NNE,23,1.0,1.0,21,0.00,,OVC080,0.00,VWS V14.01,2013-02-21 01:11:00,
2013-02-20 20:16:00,41.6,4.6,30.15,ENE,58,0.0,0.0,21,0.00,,OVC080,0.00,VWS V14.01,2013-02-21 01:16:00,
2013-02-20 20:21:00,41.3,4.3,30.15,NE,53,0.0,1.0,21,0.00,,OVC080,0.00,VWS V14.01,2013-02-21 01:21:00,
2013-02-20 20:26:00,41.1,5.2,30.15,NE,53,0.0,0.0,22,0.00,,OVC080,0.00,VWS V14.01,2013-02-21 01:26:00,
2013-02-20 20:31:00,40.7,5.8,30.15,NE,53,0.0,0.0,23,0.00,,OVC080,0.00,VWS V14.01,2013-02-21 01:31:00,
2013-02-20 20:36:00,40.2,4.4,30.15,North,5,0.0,2.0,22,0.00,,OVC080,0.00,VWS V14.01,2013-02-21 01:36:00,
2013-02-20 20:41:00,40.0,5.2,30.16,NE,46,0.0,1.0,23,0.00,,OVC080,0.00,VWS V14.01,2013-02-21 01:41:00,
2013-02-20 20:46:00,39.6,6.7,30.15,NE,46,0.0,0.0,25,0.00,,OVC080,0.00,VWS V14.01,2013-02-21 01:46:00,
2013-02-20 20:51:00,38.8,6.0,30.15,NE,46,0.0,0.0,25,0.00,,OVC080,0.00,VWS V14.01,2013-02-21 01:51:00,
2013-02-20 20:56:00,37.8,8.4,30.16,NE,46,0.0,0.0,29,0.00,,OVC080,0.00,VWS V14.01,2013-02-21 01:56:00,
2013-02-20 21:01:00,36.9,10.5,30.16,NE,46,0.0,0.0,33,0.00,,OVC080,0.00,VWS V14.01,2013-02-21 02:01:00,
2013-02-20 21:06:00,36.3,7.8,30.16,NW,320,1.0,2.0,30,0.00,,OVC080,0.00,VWS V14.01,2013-02-21 02:06:00,
2013-02-20 21:11:00,36.2,7.8,30.15,NW,320,0.0,1.0,30,0.00,,OVC080,0.00,VWS V14.01,2013-02-21 02:11:00,
2013-02-20 21:16:00,35.9,8.2,30.15,NNW,346,0.0,1.0,31,0.00,,OVC080,0.00,VWS V14.01,2013-02-21 02:16:00,
2013-02-20 21:21:00,36.3,8.6,30.16,SE,140,2.0,2.0,31,0.00,,OVC080,0.00,VWS V14.01,2013-02-21 02:21:00,
2013-02-20 21:26:00,35.8,10.8,30.16,SE,133,1.0,1.0,35,0.00,,OVC080,0.00,VWS V14.01,2013-02-21 02:26:00,
2013-02-20 21:32:00,35.1,10.2,30.17,SE,132,0.0,0.0,35,0.00,,OVC080,0.00,VWS V14.01,2013-02-21 02:32:00,
2013-02-20 21:37:00,34.5,9.0,30.16,SE,133,0.0,0.0,34,0.00,,OVC080,0.00,VWS V14.01,2013-02-21 02:37:00,
2013-02-20 21:42:00,34.1,8.7,30.16,SE,132,0.0,1.0,34,0.00,,OVC080,0.00,VWS V14.01,2013-02-21 02:42:00,
2013-02-20 21:47:00,33.8,14.2,30.16,SE,133,0.0,0.0,44,0.00,,OVC080,0.00,VWS V14.01,2013-02-21 02:47:00,
2013-02-20 21:52:00,33.3,12.2,30.16,SE,133,0.0,1.0,41,0.00,,OVC080,0.00,VWS V14.01,2013-02-21 02:52:00,
2013-02-20 21:57:00,33.2,10.4,30.16,SE,142,1.0,1.0,38,0.00,,OVC080,0.00,VWS V14.01,2013-02-21 02:57:00,
2013-02-20 22:02:00,32.9,10.7,30.17,SSE,152,1.0,2.0,39,0.00,,OVC080,0.00,VWS V14.01,2013-02-21 03:02:00,
2013-02-20 22:07:00,32.4,10.8,30.17,SSE,150,0.0,0.0,40,0.00,,OVC080,0.00,VWS V14.01,2013-02-21 03:07:00,
2013-02-20 22:12:00,32.2,9.5,30.17,SSE,149,0.0,0.0,38,0.00,,OVC080,0.00,VWS V14.01,2013-02-21 03:12:00,
2013-02-20 22:17:00,32.0,10.4,30.17,SSE,149,0.0,0.0,40,0.00,,OVC080,0.00,VWS V14.01,2013-02-21 03:17:00,
2013-02-20 22:22:00,31.6,10.6,30.17,SSE,149,0.0,0.0,41,0.00,,OVC080,0.00,VWS V14.01,2013-02-21 03:22:00,
2013-02-20 22:27:00,31.2,9.7,30.17,SSE,149,0.0,0.0,40,0.00,,OVC080,0.00,VWS V14.01,2013-02-21 03:27:00,
2013-02-20 22:32:00,30.8,10.4,30.17,SSE,149,0.0,0.0,42,0.00,,OVC080,0.00,VWS V14.01,2013-02-21 03:32:00,
2013-02-20 22:37:00,30.4,12.6,30.18,SSE,149,0.0,0.0,47,0.00,,OVC080,0.00,VWS V14.01,2013-02-21 03:37:00,
2013-02-20 22:42:00,30.0,14.5,30.17,SSE,149,0.0,0.0,52,0.00,,OVC080,0.00,VWS V14.01,2013-02-21 03:42:00,
2013-02-20 22:47:00,29.5,15.3,30.17,SSE,149,0.0,0.0,55,0.00,,OVC080,0.00,VWS V14.01,2013-02-21 03:47:00,
2013-02-20 22:52:00,29.1,14.1,30.17,SSE,149,0.0,0.0,53,0.00,,OVC080,0.00,VWS V14.01,2013-02-21 03:52:00,
2013-02-20 22:57:00,28.9,13.9,30.17,SSE,150,0.0,0.0,53,0.00,,OVC080,0.00,VWS V14.01,2013-02-21 03:57:00,
2013-02-20 23:02:00,28.7,13.8,30.16,SSE,149,0.0,0.0,53,0.00,,OVC080,0.00,VWS V14.01,2013-02-21 04:02:00,
2013-02-20 23:07:00,28.6,14.1,30.16,SSE,149,0.0,0.0,54,0.00,,OVC080,0.00,VWS V14.01,2013-02-21 04:07:00,
2013-02-20 23:12:00,28.3,14.2,30.16,SSE,150,0.0,0.0,55,0.00,,OVC080,0.00,VWS V14.01,2013-02-21 04:12:00,
2013-02-20 23:17:00,27.8,13.8,30.16,SSE,150,0.0,0.0,55,0.00,,OVC080,0.00,VWS V14.01,2013-02-21 04:17:00,
2013-02-20 23:22:00,27.5,13.5,30.15,SSE,149,0.0,0.0,55,0.00,,OVC080,0.00,VWS V14.01,2013-02-21 04:22:00,
2013-02-20 23:27:00,27.3,14.1,30.15,SSE,149,0.0,0.0,57,0.00,,OVC080,0.00,VWS V14.01,2013-02-21 04:27:00,
2013-02-20 23:32:00,27.1,13.1,30.16,SSE,149,0.0,0.0,55,0.00,,OVC080,0.00,VWS V14.01,2013-02-21 04:32:00,
2013-02-20 23:37:00,26.9,12.9,30.16,SSE,149,0.0,0.0,55,0.00,,OVC080,0.00,VWS V14.01,2013-02-21 04:37:00,
2013-02-20 23:42:00,26.9,13.3,30.16,SSE,150,0.0,0.0,56,0.00,,OVC080,0.00,VWS V14.01,2013-02-21 04:42:00,
2013-02-20 23:47:00,26.8,14.4,30.17,SSE,149,0.0,0.0,59,0.00,,OVC080,0.00,VWS V14.01,2013-02-21 04:47:00,
2013-02-20 23:52:00,26.6,15.0,30.16,SSE,149,0.0,0.0,61,0.00,,OVC080,0.00,VWS V14.01,2013-02-21 04:52:00,
2013-02-20 23:57:00,26.6,15.4,30.16,SSE,150,0.0,0.0,62,0.00,,OVC080,0.00,VWS V14.01,2013-02-21 04:57:00,